sensor_id;sensor_type;location;lat;lon;timestamp;P1;durP1;ratioP1;P2;durP2;ratioP2
27412;SDS011;14871;52.702;5.230;2023-03-14T00:02:10;11.77;;;2.53;;
27412;SDS011;14871;52.702;5.230;2023-03-14T00:04:36;14.93;;;2.75;;
27412;SDS011;14871;52.702;5.230;2023-03-14T00:07:02;16.58;;;3.28;;
27412;SDS011;14871;52.702;5.230;2023-03-14T00:09:28;13.20;;;2.90;;
27412;SDS011;14871;52.702;5.230;2023-03-14T00:11:54;16.95;;;3.15;;
27412;SDS011;14871;52.702;5.230;2023-03-14T00:14:21;18.67;;;3.28;;
27412;SDS011;14871;52.702;5.230;2023-03-14T00:16:49;15.18;;;3.40;;
27412;SDS011;14871;52.702;5.230;2023-03-14T00:19:15;11.75;;;2.55;;
27412;SDS011;14871;52.702;5.230;2023-03-14T00:21:41;16.52;;;2.80;;
27412;SDS011;14871;52.702;5.230;2023-03-14T00:24:07;16.73;;;3.30;;
27412;SDS011;14871;52.702;5.230;2023-03-14T00:26:34;14.88;;;3.58;;
27412;SDS011;14871;52.702;5.230;2023-03-14T00:29:00;14.93;;;2.35;;
27412;SDS011;14871;52.702;5.230;2023-03-14T00:31:29;14.88;;;3.08;;
27412;SDS011;14871;52.702;5.230;2023-03-14T00:33:54;14.05;;;3.10;;
27412;SDS011;14871;52.702;5.230;2023-03-14T00:36:21;14.23;;;3.58;;
27412;SDS011;14871;52.702;5.230;2023-03-14T00:38:48;18.80;;;3.85;;
27412;SDS011;14871;52.702;5.230;2023-03-14T00:41:17;14.48;;;2.28;;
27412;SDS011;14871;52.702;5.230;2023-03-14T00:43:48;25.20;;;4.25;;
27412;SDS011;14871;52.702;5.230;2023-03-14T00:46:14;16.67;;;4.25;;
27412;SDS011;14871;52.702;5.230;2023-03-14T00:48:40;20.38;;;3.28;;
27412;SDS011;14871;52.702;5.230;2023-03-14T00:51:07;15.05;;;2.60;;
27412;SDS011;14871;52.702;5.230;2023-03-14T00:53:37;26.27;;;4.25;;
27412;SDS011;14871;52.702;5.230;2023-03-14T00:56:04;18.75;;;3.33;;
27412;SDS011;14871;52.702;5.230;2023-03-14T00:58:32;14.18;;;3.13;;
27412;SDS011;14871;52.702;5.230;2023-03-14T01:01:12;18.02;;;2.63;;
27412;SDS011;14871;52.702;5.230;2023-03-14T01:03:40;19.08;;;2.65;;
27412;SDS011;14871;52.702;5.230;2023-03-14T01:06:10;16.25;;;3.03;;
27412;SDS011;14871;52.702;5.230;2023-03-14T01:08:40;17.20;;;2.97;;
27412;SDS011;14871;52.702;5.230;2023-03-14T01:11:07;20.20;;;3.75;;
27412;SDS011;14871;52.702;5.230;2023-03-14T01:13:34;13.43;;;2.67;;
27412;SDS011;14871;52.702;5.230;2023-03-14T01:16:06;19.08;;;3.15;;
27412;SDS011;14871;52.702;5.230;2023-03-14T01:18:34;11.05;;;2.25;;
27412;SDS011;14871;52.702;5.230;2023-03-14T01:21:01;13.60;;;2.75;;
27412;SDS011;14871;52.702;5.230;2023-03-14T01:23:27;11.30;;;2.67;;
27412;SDS011;14871;52.702;5.230;2023-03-14T01:25:54;11.27;;;2.28;;
27412;SDS011;14871;52.702;5.230;2023-03-14T01:28:19;10.85;;;2.70;;
27412;SDS011;14871;52.702;5.230;2023-03-14T01:30:45;14.43;;;2.85;;
27412;SDS011;14871;52.702;5.230;2023-03-14T01:33:11;13.13;;;2.38;;
27412;SDS011;14871;52.702;5.230;2023-03-14T01:35:39;19.45;;;3.03;;
27412;SDS011;14871;52.702;5.230;2023-03-14T01:38:05;18.63;;;3.20;;
27412;SDS011;14871;52.702;5.230;2023-03-14T01:40:31;17.92;;;2.97;;
27412;SDS011;14871;52.702;5.230;2023-03-14T01:42:57;13.32;;;3.13;;
27412;SDS011;14871;52.702;5.230;2023-03-14T01:48:27;16.27;;;2.88;;
27412;SDS011;14871;52.702;5.230;2023-03-14T01:50:56;18.63;;;3.38;;
27412;SDS011;14871;52.702;5.230;2023-03-14T01:53:24;20.67;;;3.38;;
27412;SDS011;14871;52.702;5.230;2023-03-14T01:55:50;23.65;;;3.63;;
27412;SDS011;14871;52.702;5.230;2023-03-14T01:58:21;19.33;;;3.78;;
27412;SDS011;14871;52.702;5.230;2023-03-14T02:00:52;21.27;;;3.55;;
27412;SDS011;14871;52.702;5.230;2023-03-14T02:03:19;16.25;;;2.88;;
27412;SDS011;14871;52.702;5.230;2023-03-14T02:05:48;23.67;;;3.75;;
27412;SDS011;14871;52.702;5.230;2023-03-14T02:08:15;21.70;;;4.05;;
27412;SDS011;14871;52.702;5.230;2023-03-14T02:10:44;27.65;;;4.07;;
27412;SDS011;14871;52.702;5.230;2023-03-14T02:13:13;16.33;;;3.60;;
27412;SDS011;14871;52.702;5.230;2023-03-14T02:15:41;19.35;;;3.55;;
27412;SDS011;14871;52.702;5.230;2023-03-14T02:18:08;21.63;;;3.70;;
27412;SDS011;14871;52.702;5.230;2023-03-14T02:23:16;16.25;;;3.05;;
27412;SDS011;14871;52.702;5.230;2023-03-14T02:26:01;22.98;;;3.88;;
27412;SDS011;14871;52.702;5.230;2023-03-14T02:28:32;25.13;;;4.55;;
27412;SDS011;14871;52.702;5.230;2023-03-14T02:31:01;33.55;;;5.70;;
27412;SDS011;14871;52.702;5.230;2023-03-14T02:33:30;21.20;;;4.25;;
27412;SDS011;14871;52.702;5.230;2023-03-14T02:35:57;25.38;;;3.78;;
27412;SDS011;14871;52.702;5.230;2023-03-14T02:38:36;26.17;;;3.90;;
27412;SDS011;14871;52.702;5.230;2023-03-14T02:41:20;19.17;;;3.33;;
27412;SDS011;14871;52.702;5.230;2023-03-14T02:43:46;17.70;;;4.10;;
27412;SDS011;14871;52.702;5.230;2023-03-14T02:46:13;20.67;;;3.63;;
27412;SDS011;14871;52.702;5.230;2023-03-14T02:48:53;20.58;;;4.60;;
27412;SDS011;14871;52.702;5.230;2023-03-14T02:51:28;27.77;;;4.95;;
27412;SDS011;14871;52.702;5.230;2023-03-14T02:53:54;25.90;;;4.63;;
27412;SDS011;14871;52.702;5.230;2023-03-14T02:56:20;10.25;;;3.40;;
27412;SDS011;14871;52.702;5.230;2023-03-14T02:58:46;31.98;;;5.22;;
27412;SDS011;14871;52.702;5.230;2023-03-14T03:01:12;23.65;;;4.35;;
27412;SDS011;14871;52.702;5.230;2023-03-14T03:03:38;25.92;;;4.38;;
27412;SDS011;14871;52.702;5.230;2023-03-14T03:06:04;24.27;;;4.05;;
27412;SDS011;14871;52.702;5.230;2023-03-14T03:08:30;23.55;;;3.75;;
27412;SDS011;14871;52.702;5.230;2023-03-14T03:10:57;22.70;;;4.25;;
27412;SDS011;14871;52.702;5.230;2023-03-14T03:13:23;20.77;;;4.05;;
27412;SDS011;14871;52.702;5.230;2023-03-14T03:15:49;29.55;;;4.63;;
27412;SDS011;14871;52.702;5.230;2023-03-14T03:18:14;23.05;;;3.50;;
27412;SDS011;14871;52.702;5.230;2023-03-14T03:20:41;31.10;;;4.57;;
27412;SDS011;14871;52.702;5.230;2023-03-14T03:23:06;18.10;;;3.80;;
27412;SDS011;14871;52.702;5.230;2023-03-14T03:25:32;18.40;;;4.25;;
27412;SDS011;14871;52.702;5.230;2023-03-14T03:27:58;19.17;;;3.08;;
27412;SDS011;14871;52.702;5.230;2023-03-14T03:30:25;22.05;;;3.60;;
27412;SDS011;14871;52.702;5.230;2023-03-14T03:32:52;20.00;;;3.40;;
27412;SDS011;14871;52.702;5.230;2023-03-14T03:35:17;18.25;;;3.55;;
27412;SDS011;14871;52.702;5.230;2023-03-14T03:37:43;17.77;;;3.03;;
27412;SDS011;14871;52.702;5.230;2023-03-14T03:40:09;18.92;;;3.60;;
27412;SDS011;14871;52.702;5.230;2023-03-14T03:42:35;17.10;;;3.97;;
27412;SDS011;14871;52.702;5.230;2023-03-14T03:45:02;21.60;;;3.25;;
27412;SDS011;14871;52.702;5.230;2023-03-14T03:47:29;13.80;;;2.85;;
27412;SDS011;14871;52.702;5.230;2023-03-14T03:49:56;25.80;;;3.80;;
27412;SDS011;14871;52.702;5.230;2023-03-14T03:52:21;13.20;;;2.92;;
27412;SDS011;14871;52.702;5.230;2023-03-14T03:54:47;16.20;;;3.28;;
27412;SDS011;14871;52.702;5.230;2023-03-14T03:57:13;11.40;;;2.50;;
27412;SDS011;14871;52.702;5.230;2023-03-14T03:59:39;17.17;;;3.70;;
27412;SDS011;14871;52.702;5.230;2023-03-14T04:02:06;18.50;;;3.80;;
27412;SDS011;14871;52.702;5.230;2023-03-14T04:04:32;21.13;;;3.10;;
27412;SDS011;14871;52.702;5.230;2023-03-14T04:06:58;13.35;;;2.30;;
27412;SDS011;14871;52.702;5.230;2023-03-14T04:09:23;17.30;;;3.05;;
27412;SDS011;14871;52.702;5.230;2023-03-14T04:11:49;11.10;;;3.38;;
27412;SDS011;14871;52.702;5.230;2023-03-14T04:14:15;13.90;;;3.75;;
27412;SDS011;14871;52.702;5.230;2023-03-14T04:16:41;21.08;;;3.33;;
27412;SDS011;14871;52.702;5.230;2023-03-14T04:19:07;11.05;;;2.80;;
27412;SDS011;14871;52.702;5.230;2023-03-14T04:21:32;12.38;;;3.78;;
27412;SDS011;14871;52.702;5.230;2023-03-14T04:23:58;14.13;;;3.10;;
27412;SDS011;14871;52.702;5.230;2023-03-14T04:26:24;12.68;;;3.75;;
27412;SDS011;14871;52.702;5.230;2023-03-14T04:28:49;14.63;;;3.95;;
27412;SDS011;14871;52.702;5.230;2023-03-14T04:31:16;13.93;;;4.20;;
27412;SDS011;14871;52.702;5.230;2023-03-14T04:33:46;16.77;;;4.00;;
27412;SDS011;14871;52.702;5.230;2023-03-14T04:36:12;17.70;;;4.28;;
27412;SDS011;14871;52.702;5.230;2023-03-14T04:38:38;16.77;;;3.72;;
27412;SDS011;14871;52.702;5.230;2023-03-14T04:41:04;12.85;;;3.95;;
27412;SDS011;14871;52.702;5.230;2023-03-14T04:43:30;15.10;;;4.22;;
27412;SDS011;14871;52.702;5.230;2023-03-14T04:45:57;16.80;;;3.90;;
27412;SDS011;14871;52.702;5.230;2023-03-14T04:48:24;11.23;;;2.53;;
27412;SDS011;14871;52.702;5.230;2023-03-14T04:50:50;15.13;;;3.70;;
27412;SDS011;14871;52.702;5.230;2023-03-14T04:53:16;13.68;;;3.38;;
27412;SDS011;14871;52.702;5.230;2023-03-14T04:55:49;11.07;;;3.97;;
27412;SDS011;14871;52.702;5.230;2023-03-14T04:58:16;15.13;;;3.47;;
27412;SDS011;14871;52.702;5.230;2023-03-14T05:00:43;12.77;;;3.92;;
27412;SDS011;14871;52.702;5.230;2023-03-14T05:03:09;9.55;;;3.75;;
27412;SDS011;14871;52.702;5.230;2023-03-14T05:05:35;10.50;;;4.07;;
27412;SDS011;14871;52.702;5.230;2023-03-14T05:08:01;8.10;;;3.17;;
27412;SDS011;14871;52.702;5.230;2023-03-14T05:10:27;14.93;;;4.07;;
27412;SDS011;14871;52.702;5.230;2023-03-14T05:12:52;9.43;;;3.72;;
27412;SDS011;14871;52.702;5.230;2023-03-14T05:15:18;6.03;;;2.42;;
27412;SDS011;14871;52.702;5.230;2023-03-14T05:17:44;8.82;;;2.70;;
27412;SDS011;14871;52.702;5.230;2023-03-14T05:20:11;9.02;;;2.50;;
27412;SDS011;14871;52.702;5.230;2023-03-14T05:22:40;12.18;;;3.10;;
27412;SDS011;14871;52.702;5.230;2023-03-14T05:25:07;12.07;;;3.20;;
27412;SDS011;14871;52.702;5.230;2023-03-14T05:27:34;9.35;;;3.15;;
27412;SDS011;14871;52.702;5.230;2023-03-14T05:30:01;10.85;;;3.58;;
27412;SDS011;14871;52.702;5.230;2023-03-14T05:32:27;11.88;;;3.83;;
27412;SDS011;14871;52.702;5.230;2023-03-14T05:34:53;12.85;;;3.42;;
27412;SDS011;14871;52.702;5.230;2023-03-14T05:37:23;8.60;;;1.85;;
27412;SDS011;14871;52.702;5.230;2023-03-14T05:39:50;8.40;;;1.77;;
27412;SDS011;14871;52.702;5.230;2023-03-14T05:42:15;9.93;;;1.42;;
27412;SDS011;14871;52.702;5.230;2023-03-14T05:44:41;6.43;;;1.17;;
27412;SDS011;14871;52.702;5.230;2023-03-14T05:47:07;5.18;;;1.00;;
27412;SDS011;14871;52.702;5.230;2023-03-14T05:49:33;6.97;;;1.20;;
27412;SDS011;14871;52.702;5.230;2023-03-14T05:51:59;5.38;;;1.10;;
27412;SDS011;14871;52.702;5.230;2023-03-14T05:54:25;8.77;;;1.17;;
27412;SDS011;14871;52.702;5.230;2023-03-14T05:56:50;8.77;;;1.17;;
27412;SDS011;14871;52.702;5.230;2023-03-14T05:59:19;3.05;;;0.90;;
27412;SDS011;14871;52.702;5.230;2023-03-14T06:01:45;4.28;;;0.73;;
27412;SDS011;14871;52.702;5.230;2023-03-14T06:04:11;4.53;;;0.70;;
27412;SDS011;14871;52.702;5.230;2023-03-14T06:06:38;4.47;;;1.35;;
27412;SDS011;14871;52.702;5.230;2023-03-14T06:09:04;3.65;;;0.85;;
27412;SDS011;14871;52.702;5.230;2023-03-14T06:11:30;10.48;;;1.00;;
27412;SDS011;14871;52.702;5.230;2023-03-14T06:13:56;3.75;;;0.80;;
27412;SDS011;14871;52.702;5.230;2023-03-14T06:16:22;5.32;;;0.90;;
27412;SDS011;14871;52.702;5.230;2023-03-14T06:18:47;3.95;;;1.00;;
27412;SDS011;14871;52.702;5.230;2023-03-14T06:21:14;5.45;;;0.98;;
27412;SDS011;14871;52.702;5.230;2023-03-14T06:23:40;4.50;;;1.00;;
27412;SDS011;14871;52.702;5.230;2023-03-14T06:26:06;4.63;;;1.30;;
27412;SDS011;14871;52.702;5.230;2023-03-14T06:28:32;8.32;;;1.70;;
27412;SDS011;14871;52.702;5.230;2023-03-14T06:30:58;12.07;;;1.95;;
27412;SDS011;14871;52.702;5.230;2023-03-14T06:33:25;17.25;;;2.38;;
27412;SDS011;14871;52.702;5.230;2023-03-14T06:35:51;18.67;;;2.35;;
27412;SDS011;14871;52.702;5.230;2023-03-14T06:38:17;14.90;;;2.35;;
27412;SDS011;14871;52.702;5.230;2023-03-14T06:40:43;14.95;;;2.30;;
27412;SDS011;14871;52.702;5.230;2023-03-14T06:43:08;15.20;;;2.17;;
27412;SDS011;14871;52.702;5.230;2023-03-14T06:45:34;11.85;;;1.90;;
27412;SDS011;14871;52.702;5.230;2023-03-14T06:48:00;17.55;;;2.17;;
27412;SDS011;14871;52.702;5.230;2023-03-14T06:50:26;13.82;;;1.67;;
27412;SDS011;14871;52.702;5.230;2023-03-14T06:52:52;9.57;;;1.70;;
27412;SDS011;14871;52.702;5.230;2023-03-14T06:55:18;12.20;;;1.60;;
27412;SDS011;14871;52.702;5.230;2023-03-14T06:57:44;8.13;;;1.60;;
27412;SDS011;14871;52.702;5.230;2023-03-14T07:00:10;9.55;;;1.13;;
27412;SDS011;14871;52.702;5.230;2023-03-14T07:02:38;9.10;;;0.88;;
27412;SDS011;14871;52.702;5.230;2023-03-14T07:05:04;6.03;;;0.75;;
27412;SDS011;14871;52.702;5.230;2023-03-14T07:07:31;8.02;;;1.48;;
27412;SDS011;14871;52.702;5.230;2023-03-14T07:09:57;5.20;;;1.10;;
27412;SDS011;14871;52.702;5.230;2023-03-14T07:12:25;6.32;;;0.75;;
27412;SDS011;14871;52.702;5.230;2023-03-14T07:14:51;7.57;;;0.75;;
27412;SDS011;14871;52.702;5.230;2023-03-14T07:17:17;7.55;;;1.13;;
27412;SDS011;14871;52.702;5.230;2023-03-14T07:19:42;4.47;;;0.75;;
27412;SDS011;14871;52.702;5.230;2023-03-14T07:22:08;4.38;;;0.57;;
27412;SDS011;14871;52.702;5.230;2023-03-14T07:24:34;6.80;;;0.93;;
27412;SDS011;14871;52.702;5.230;2023-03-14T07:27:00;8.48;;;1.20;;
27412;SDS011;14871;52.702;5.230;2023-03-14T07:29:29;5.38;;;0.88;;
27412;SDS011;14871;52.702;5.230;2023-03-14T07:31:54;7.55;;;0.90;;
27412;SDS011;14871;52.702;5.230;2023-03-14T07:34:20;7.75;;;0.95;;
27412;SDS011;14871;52.702;5.230;2023-03-14T07:36:46;3.45;;;0.77;;
27412;SDS011;14871;52.702;5.230;2023-03-14T07:39:12;6.68;;;1.25;;
27412;SDS011;14871;52.702;5.230;2023-03-14T07:41:38;10.38;;;1.55;;
27412;SDS011;14871;52.702;5.230;2023-03-14T07:44:04;10.63;;;1.75;;
27412;SDS011;14871;52.702;5.230;2023-03-14T07:46:29;16.45;;;1.60;;
27412;SDS011;14871;52.702;5.230;2023-03-14T07:48:55;9.35;;;1.90;;
27412;SDS011;14871;52.702;5.230;2023-03-14T07:51:21;12.68;;;1.73;;
27412;SDS011;14871;52.702;5.230;2023-03-14T07:53:46;9.05;;;1.67;;
27412;SDS011;14871;52.702;5.230;2023-03-14T07:56:12;12.70;;;1.80;;
27412;SDS011;14871;52.702;5.230;2023-03-14T07:58:38;17.45;;;2.45;;
27412;SDS011;14871;52.702;5.230;2023-03-14T08:01:04;11.40;;;1.80;;
27412;SDS011;14871;52.702;5.230;2023-03-14T08:03:30;17.20;;;2.78;;
27412;SDS011;14871;52.702;5.230;2023-03-14T08:05:56;14.23;;;2.42;;
27412;SDS011;14871;52.702;5.230;2023-03-14T08:08:21;12.98;;;2.08;;
27412;SDS011;14871;52.702;5.230;2023-03-14T08:10:47;13.27;;;2.22;;
27412;SDS011;14871;52.702;5.230;2023-03-14T08:13:14;15.85;;;2.60;;
27412;SDS011;14871;52.702;5.230;2023-03-14T08:15:39;15.07;;;2.78;;
27412;SDS011;14871;52.702;5.230;2023-03-14T08:18:05;14.48;;;2.50;;
27412;SDS011;14871;52.702;5.230;2023-03-14T08:20:31;17.02;;;2.78;;
27412;SDS011;14871;52.702;5.230;2023-03-14T08:22:57;17.50;;;2.97;;
27412;SDS011;14871;52.702;5.230;2023-03-14T08:25:25;20.65;;;2.70;;
27412;SDS011;14871;52.702;5.230;2023-03-14T08:27:51;16.00;;;3.63;;
27412;SDS011;14871;52.702;5.230;2023-03-14T08:30:17;17.30;;;2.65;;
27412;SDS011;14871;52.702;5.230;2023-03-14T08:32:44;19.15;;;2.92;;
27412;SDS011;14871;52.702;5.230;2023-03-14T08:35:10;18.48;;;2.97;;
27412;SDS011;14871;52.702;5.230;2023-03-14T08:37:36;15.65;;;2.97;;
27412;SDS011;14871;52.702;5.230;2023-03-14T08:40:03;17.17;;;2.85;;
27412;SDS011;14871;52.702;5.230;2023-03-14T08:42:33;19.70;;;2.80;;
27412;SDS011;14871;52.702;5.230;2023-03-14T08:45:03;18.90;;;3.28;;
27412;SDS011;14871;52.702;5.230;2023-03-14T08:47:30;21.38;;;2.95;;
27412;SDS011;14871;52.702;5.230;2023-03-14T08:49:55;26.10;;;3.83;;
27412;SDS011;14871;52.702;5.230;2023-03-14T08:52:21;23.58;;;3.22;;
27412;SDS011;14871;52.702;5.230;2023-03-14T08:54:48;19.20;;;3.47;;
27412;SDS011;14871;52.702;5.230;2023-03-14T08:57:14;22.30;;;3.55;;
27412;SDS011;14871;52.702;5.230;2023-03-14T08:59:40;19.58;;;4.68;;
27412;SDS011;14871;52.702;5.230;2023-03-14T09:02:06;27.85;;;3.92;;
27412;SDS011;14871;52.702;5.230;2023-03-14T09:04:33;20.10;;;3.83;;
27412;SDS011;14871;52.702;5.230;2023-03-14T09:06:59;19.83;;;4.07;;
27412;SDS011;14871;52.702;5.230;2023-03-14T09:09:25;27.02;;;4.10;;
27412;SDS011;14871;52.702;5.230;2023-03-14T09:11:52;17.60;;;3.17;;
27412;SDS011;14871;52.702;5.230;2023-03-14T09:14:17;16.42;;;3.13;;
27412;SDS011;14871;52.702;5.230;2023-03-14T09:16:43;14.23;;;2.83;;
27412;SDS011;14871;52.702;5.230;2023-03-14T09:19:09;18.98;;;4.05;;
27412;SDS011;14871;52.702;5.230;2023-03-14T09:21:35;12.95;;;3.13;;
27412;SDS011;14871;52.702;5.230;2023-03-14T09:24:02;19.55;;;3.22;;
27412;SDS011;14871;52.702;5.230;2023-03-14T09:26:28;19.55;;;4.32;;
27412;SDS011;14871;52.702;5.230;2023-03-14T09:28:53;21.30;;;3.80;;
27412;SDS011;14871;52.702;5.230;2023-03-14T09:31:19;23.75;;;3.95;;
27412;SDS011;14871;52.702;5.230;2023-03-14T09:33:46;24.35;;;3.50;;
27412;SDS011;14871;52.702;5.230;2023-03-14T09:36:13;18.52;;;3.35;;
27412;SDS011;14871;52.702;5.230;2023-03-14T09:38:39;20.33;;;3.78;;
27412;SDS011;14871;52.702;5.230;2023-03-14T09:41:18;19.52;;;3.08;;
27412;SDS011;14871;52.702;5.230;2023-03-14T10:54:48;10.20;;;2.17;;
27412;SDS011;14871;52.702;5.230;2023-03-14T11:11:47;9.60;;;1.98;;
27412;SDS011;14871;52.702;5.230;2023-03-14T11:28:08;9.77;;;1.70;;
27412;SDS011;14871;52.702;5.230;2023-03-14T12:01:18;6.25;;;1.13;;
27412;SDS011;14871;52.702;5.230;2023-03-14T12:07:20;7.07;;;1.58;;
27412;SDS011;14871;52.702;5.230;2023-03-14T13:05:23;6.20;;;1.50;;
27412;SDS011;14871;52.702;5.230;2023-03-14T13:11:15;9.77;;;1.67;;
27412;SDS011;14871;52.702;5.230;2023-03-14T13:21:25;8.15;;;1.48;;
27412;SDS011;14871;52.702;5.230;2023-03-14T13:27:16;7.50;;;1.55;;
27412;SDS011;14871;52.702;5.230;2023-03-14T13:33:11;6.63;;;1.20;;
27412;SDS011;14871;52.702;5.230;2023-03-14T13:35:44;9.88;;;1.30;;
27412;SDS011;14871;52.702;5.230;2023-03-14T13:41:36;11.88;;;1.63;;
27412;SDS011;14871;52.702;5.230;2023-03-14T13:53:54;6.13;;;1.67;;
27412;SDS011;14871;52.702;5.230;2023-03-14T14:03:04;6.72;;;1.35;;
27412;SDS011;14871;52.702;5.230;2023-03-14T14:08:59;7.00;;;1.40;;
27412;SDS011;14871;52.702;5.230;2023-03-14T14:21:15;5.70;;;1.40;;
27412;SDS011;14871;52.702;5.230;2023-03-14T14:33:38;7.32;;;1.63;;
27412;SDS011;14871;52.702;5.230;2023-03-14T14:40:23;8.45;;;1.73;;
27412;SDS011;14871;52.702;5.230;2023-03-14T14:46:51;11.77;;;1.60;;
27412;SDS011;14871;52.702;5.230;2023-03-14T14:49:18;8.23;;;1.65;;
27412;SDS011;14871;52.702;5.230;2023-03-14T15:01:54;9.50;;;1.80;;
27412;SDS011;14871;52.702;5.230;2023-03-14T15:07:43;5.50;;;1.20;;
27412;SDS011;14871;52.702;5.230;2023-03-14T15:16:54;9.00;;;2.60;;
27412;SDS011;14871;52.702;5.230;2023-03-14T15:22:41;5.75;;;1.25;;
27412;SDS011;14871;52.702;5.230;2023-03-14T15:28:29;5.35;;;1.02;;
27412;SDS011;14871;52.702;5.230;2023-03-14T15:34:17;7.78;;;1.13;;
27412;SDS011;14871;52.702;5.230;2023-03-14T15:40:05;8.10;;;1.52;;
27412;SDS011;14871;52.702;5.230;2023-03-14T15:56:06;10.00;;;1.92;;
27412;SDS011;14871;52.702;5.230;2023-03-14T16:01:58;11.40;;;1.98;;
27412;SDS011;14871;52.702;5.230;2023-03-14T16:04:23;7.28;;;1.63;;
27412;SDS011;14871;52.702;5.230;2023-03-14T16:10:11;10.52;;;1.92;;
27412;SDS011;14871;52.702;5.230;2023-03-14T16:16:00;8.35;;;1.30;;
27412;SDS011;14871;52.702;5.230;2023-03-14T16:21:49;6.43;;;1.27;;
27412;SDS011;14871;52.702;5.230;2023-03-14T16:24:15;10.40;;;1.60;;
27412;SDS011;14871;52.702;5.230;2023-03-14T16:30:02;8.35;;;1.50;;
27412;SDS011;14871;52.702;5.230;2023-03-14T16:35:55;10.93;;;1.60;;
27412;SDS011;14871;52.702;5.230;2023-03-14T16:46:09;9.13;;;1.55;;
27412;SDS011;14871;52.702;5.230;2023-03-14T16:58:49;6.45;;;1.52;;
27412;SDS011;14871;52.702;5.230;2023-03-14T17:04:48;9.23;;;1.58;;
27412;SDS011;14871;52.702;5.230;2023-03-14T17:10:35;11.02;;;1.88;;
27412;SDS011;14871;52.702;5.230;2023-03-14T17:16:22;11.77;;;2.45;;
27412;SDS011;14871;52.702;5.230;2023-03-14T17:18:48;11.77;;;1.85;;
27412;SDS011;14871;52.702;5.230;2023-03-14T17:24:36;7.85;;;1.48;;
27412;SDS011;14871;52.702;5.230;2023-03-14T17:30:25;9.52;;;2.00;;
27412;SDS011;14871;52.702;5.230;2023-03-14T17:36:13;11.40;;;1.92;;
27412;SDS011;14871;52.702;5.230;2023-03-14T18:06:29;7.72;;;1.42;;
27412;SDS011;14871;52.702;5.230;2023-03-14T18:12:20;9.65;;;2.35;;
27412;SDS011;14871;52.702;5.230;2023-03-14T18:14:46;9.32;;;2.20;;
27412;SDS011;14871;52.702;5.230;2023-03-14T18:20:34;10.88;;;2.25;;
27412;SDS011;14871;52.702;5.230;2023-03-14T18:26:22;11.68;;;3.05;;
27412;SDS011;14871;52.702;5.230;2023-03-14T18:32:11;14.25;;;2.55;;
27412;SDS011;14871;52.702;5.230;2023-03-14T18:37:59;10.23;;;2.63;;
27412;SDS011;14871;52.702;5.230;2023-03-14T18:43:47;15.00;;;3.22;;
27412;SDS011;14871;52.702;5.230;2023-03-14T18:46:13;9.98;;;2.60;;
27412;SDS011;14871;52.702;5.230;2023-03-14T18:52:02;11.27;;;3.45;;
27412;SDS011;14871;52.702;5.230;2023-03-14T18:54:28;16.77;;;3.75;;
27412;SDS011;14871;52.702;5.230;2023-03-14T19:00:16;9.68;;;2.55;;
27412;SDS011;14871;52.702;5.230;2023-03-14T19:25:56;13.68;;;2.53;;
27412;SDS011;14871;52.702;5.230;2023-03-14T19:31:44;14.05;;;2.55;;
27412;SDS011;14871;52.702;5.230;2023-03-14T19:37:32;10.27;;;3.10;;
27412;SDS011;14871;52.702;5.230;2023-03-14T19:39:57;6.95;;;2.20;;
27412;SDS011;14871;52.702;5.230;2023-03-14T19:45:45;15.80;;;3.17;;
27412;SDS011;14871;52.702;5.230;2023-03-14T19:51:33;13.25;;;2.90;;
27412;SDS011;14871;52.702;5.230;2023-03-14T19:57:21;7.82;;;1.63;;
27412;SDS011;14871;52.702;5.230;2023-03-14T20:03:09;9.57;;;1.50;;
27412;SDS011;14871;52.702;5.230;2023-03-14T20:08:57;7.38;;;1.42;;
27412;SDS011;14871;52.702;5.230;2023-03-14T20:14:45;4.30;;;1.10;;
27412;SDS011;14871;52.702;5.230;2023-03-14T20:20:33;7.55;;;1.52;;
27412;SDS011;14871;52.702;5.230;2023-03-14T20:29:43;3.67;;;1.45;;
27412;SDS011;14871;52.702;5.230;2023-03-14T20:35:30;10.70;;;1.63;;
27412;SDS011;14871;52.702;5.230;2023-03-14T20:41:18;4.28;;;1.30;;
27412;SDS011;14871;52.702;5.230;2023-03-14T20:47:06;6.35;;;1.58;;
27412;SDS011;14871;52.702;5.230;2023-03-14T20:52:54;8.15;;;2.47;;
27412;SDS011;14871;52.702;5.230;2023-03-14T20:58:42;4.13;;;1.67;;
27412;SDS011;14871;52.702;5.230;2023-03-14T21:04:31;3.67;;;1.20;;
27412;SDS011;14871;52.702;5.230;2023-03-14T21:10:19;7.03;;;2.10;;
27412;SDS011;14871;52.702;5.230;2023-03-14T21:16:07;7.18;;;1.50;;
27412;SDS011;14871;52.702;5.230;2023-03-14T21:38:47;7.47;;;1.67;;
27412;SDS011;14871;52.702;5.230;2023-03-14T21:41:12;10.60;;;2.10;;
27412;SDS011;14871;52.702;5.230;2023-03-14T21:47:38;8.55;;;2.28;;
27412;SDS011;14871;52.702;5.230;2023-03-14T21:50:04;8.23;;;1.65;;
27412;SDS011;14871;52.702;5.230;2023-03-14T21:52:30;9.07;;;1.67;;
27412;SDS011;14871;52.702;5.230;2023-03-14T21:54:55;6.63;;;1.42;;
27412;SDS011;14871;52.702;5.230;2023-03-14T21:57:21;6.53;;;1.58;;
27412;SDS011;14871;52.702;5.230;2023-03-14T21:59:54;10.05;;;1.83;;
27412;SDS011;14871;52.702;5.230;2023-03-14T22:02:20;10.32;;;2.28;;
27412;SDS011;14871;52.702;5.230;2023-03-14T22:08:15;8.32;;;2.63;;
27412;SDS011;14871;52.702;5.230;2023-03-14T22:10:45;9.95;;;2.47;;
27412;SDS011;14871;52.702;5.230;2023-03-14T22:13:13;11.98;;;1.95;;
27412;SDS011;14871;52.702;5.230;2023-03-14T22:15:40;6.65;;;1.30;;
27412;SDS011;14871;52.702;5.230;2023-03-14T22:18:10;7.97;;;1.50;;
27412;SDS011;14871;52.702;5.230;2023-03-14T22:20:36;8.13;;;1.75;;
27412;SDS011;14871;52.702;5.230;2023-03-14T22:23:01;7.20;;;1.30;;
27412;SDS011;14871;52.702;5.230;2023-03-14T22:25:27;8.70;;;1.60;;
27412;SDS011;14871;52.702;5.230;2023-03-14T22:27:53;12.93;;;1.70;;
27412;SDS011;14871;52.702;5.230;2023-03-14T22:30:19;5.22;;;1.63;;
27412;SDS011;14871;52.702;5.230;2023-03-14T22:32:44;5.35;;;1.17;;
27412;SDS011;14871;52.702;5.230;2023-03-14T22:45:26;10.13;;;1.92;;
27412;SDS011;14871;52.702;5.230;2023-03-14T22:50:27;10.18;;;1.60;;
27412;SDS011;14871;52.702;5.230;2023-03-14T22:52:52;4.63;;;1.75;;
27412;SDS011;14871;52.702;5.230;2023-03-14T22:55:18;2.83;;;0.93;;
27412;SDS011;14871;52.702;5.230;2023-03-14T22:57:44;10.48;;;1.55;;
27412;SDS011;14871;52.702;5.230;2023-03-14T23:00:10;6.53;;;1.30;;
27412;SDS011;14871;52.702;5.230;2023-03-14T23:02:41;5.03;;;0.90;;
27412;SDS011;14871;52.702;5.230;2023-03-14T23:05:07;6.00;;;1.10;;
27412;SDS011;14871;52.702;5.230;2023-03-14T23:07:33;6.57;;;2.00;;
27412;SDS011;14871;52.702;5.230;2023-03-14T23:09:59;6.25;;;1.45;;
27412;SDS011;14871;52.702;5.230;2023-03-14T23:12:25;10.80;;;1.10;;
27412;SDS011;14871;52.702;5.230;2023-03-14T23:14:50;6.22;;;1.10;;
27412;SDS011;14871;52.702;5.230;2023-03-14T23:17:18;7.55;;;1.13;;
27412;SDS011;14871;52.702;5.230;2023-03-14T23:19:43;8.48;;;1.30;;
27412;SDS011;14871;52.702;5.230;2023-03-14T23:22:09;7.65;;;1.15;;
27412;SDS011;14871;52.702;5.230;2023-03-14T23:24:35;3.42;;;0.85;;
27412;SDS011;14871;52.702;5.230;2023-03-14T23:27:01;3.50;;;1.02;;
27412;SDS011;14871;52.702;5.230;2023-03-14T23:29:27;3.67;;;0.85;;
27412;SDS011;14871;52.702;5.230;2023-03-14T23:31:53;3.65;;;0.50;;
27412;SDS011;14871;52.702;5.230;2023-03-14T23:34:19;2.28;;;0.70;;
27412;SDS011;14871;52.702;5.230;2023-03-14T23:36:45;3.30;;;0.60;;
27412;SDS011;14871;52.702;5.230;2023-03-14T23:39:11;2.08;;;0.73;;
27412;SDS011;14871;52.702;5.230;2023-03-14T23:41:36;2.50;;;0.52;;
27412;SDS011;14871;52.702;5.230;2023-03-14T23:44:02;3.78;;;0.90;;
27412;SDS011;14871;52.702;5.230;2023-03-14T23:46:28;3.78;;;0.60;;
27412;SDS011;14871;52.702;5.230;2023-03-14T23:48:55;3.33;;;0.93;;
27412;SDS011;14871;52.702;5.230;2023-03-14T23:51:21;4.85;;;1.00;;